Time;durP1;ratioP1;P1;durP2;ratioP2;P2;SDS_P1;SDS_P2;PMS_P1;PMS_P2;Temp;Humidity;BMP_temperature;BMP_pressure;BME280_temperature;BME280_humidity;BME280_pressure;Samples;Min_cycle;Max_cycle;Signal;HPM_P1;HPM_P2
2022/05/09 00:01:04;;;;;;;12.48;3.53;;;7.30;99.90;;;;;;5048402;28;20072;-73
2022/05/09 00:03:31;;;;;;;12.57;3.63;;;7.30;99.90;;;;;;5046748;28;20407;-73
2022/05/09 00:05:57;;;;;;;13.45;4.20;;;7.20;99.90;;;;;;5047987;28;20130;-73
2022/05/09 00:08:22;;;;;;;15.60;3.83;;;7.20;99.90;;;;;;5049858;28;20442;-73
2022/05/09 00:10:48;;;;;;;15.30;3.72;;;7.20;99.90;;;;;;5062578;28;20061;-73
2022/05/09 00:13:14;;;;;;;14.75;3.67;;;7.20;99.90;;;;;;5058058;28;20408;-73
2022/05/09 00:23:13;;;;;;;13.00;3.65;;;7.10;99.90;;;;;;5368274;23;21761;-71
2022/05/09 00:25:38;;;;;;;12.85;4.00;;;7.00;99.90;;;;;;5112139;23;20046;-71
2022/05/09 00:28:04;;;;;;;15.23;4.25;;;7.00;99.90;;;;;;5007420;28;20400;-71
2022/05/09 00:30:30;;;;;;;13.23;4.05;;;6.90;99.90;;;;;;5042222;28;20128;-71
2022/05/09 00:32:56;;;;;;;11.52;3.50;;;6.90;99.90;;;;;;5008351;28;20053;-71
2022/05/09 00:35:21;;;;;;;13.43;3.60;;;6.80;99.90;;;;;;4999799;28;20049;-71
2022/05/09 00:37:47;;;;;;;14.48;4.80;;;6.80;99.90;;;;;;5011810;28;20108;-71
2022/05/09 00:40:15;;;;;;;13.52;5.03;;;6.80;99.90;;;;;;5013543;28;20046;-71
2022/05/09 00:42:51;;;;;;;16.92;4.18;;;6.80;99.90;;;;;;5006451;28;20073;-71
2022/05/09 00:45:22;;;;;;;12.00;3.35;;;6.80;99.90;;;;;;5013949;28;20164;-71
2022/05/09 00:47:47;;;;;;;14.48;4.05;;;6.70;99.90;;;;;;5036959;28;20060;-71
2022/05/09 00:50:17;;;;;;;11.10;3.60;;;6.70;99.90;;;;;;5002053;28;20038;-71
2022/05/09 00:52:46;;;;;;;11.30;3.88;;;6.70;99.90;;;;;;5004999;28;20049;-70
2022/05/09 00:55:18;;;;;;;12.95;4.15;;;6.70;99.90;;;;;;5004020;28;20057;-70
2022/05/09 00:58:03;;;;;;;11.77;3.67;;;6.70;99.90;;;;;;5005620;28;20503;-71
2022/05/09 01:00:28;;;;;;;10.35;3.38;;;6.70;99.90;;;;;;5010172;28;20103;-71
2022/05/09 01:02:59;;;;;;;12.18;3.65;;;6.70;99.90;;;;;;5010362;28;20046;-71
2022/05/09 01:05:27;;;;;;;11.00;3.80;;;6.70;99.90;;;;;;5005938;28;20037;-71
2022/05/09 01:07:54;;;;;;;10.95;3.28;;;6.70;99.90;;;;;;5009885;28;20084;-71
2022/05/09 01:10:23;;;;;;;11.23;3.70;;;6.70;99.90;;;;;;5004656;28;20061;-71
2022/05/09 01:12:50;;;;;;;13.40;4.35;;;6.60;99.90;;;;;;5005526;28;20504;-71
2022/05/09 01:15:16;;;;;;;10.25;4.00;;;6.60;99.90;;;;;;5004957;28;20042;-71
2022/05/09 01:17:45;;;;;;;13.27;5.60;;;6.60;99.90;;;;;;5012006;28;20057;-71
2022/05/09 01:20:11;;;;;;;12.75;4.43;;;6.60;99.90;;;;;;5005603;28;20046;-71
2022/05/09 01:22:38;;;;;;;7.75;3.80;;;6.60;99.90;;;;;;5004343;28;20055;-71
2022/05/09 01:25:11;;;;;;;18.33;4.35;;;6.60;99.90;;;;;;5020085;28;20057;-71
2022/05/09 01:27:40;;;;;;;14.30;4.30;;;6.60;99.90;;;;;;5027479;28;20480;-71
2022/05/09 01:30:19;;;;;;;18.75;4.82;;;6.50;99.90;;;;;;5026664;28;20049;-71
2022/05/09 01:33:03;;;;;;;14.38;4.82;;;6.50;99.90;;;;;;5025266;28;20046;-71
2022/05/09 01:35:52;;;;;;;13.73;4.32;;;6.50;99.90;;;;;;5030174;28;20290;-71
2022/05/09 01:38:32;;;;;;;9.40;3.85;;;6.40;99.90;;;;;;5031098;28;20064;-71
2022/05/09 01:40:58;;;;;;;12.93;4.10;;;6.40;99.90;;;;;;5028042;28;20045;-71
2022/05/09 01:43:33;;;;;;;10.57;4.05;;;6.30;99.90;;;;;;5027264;28;20045;-71
2022/05/09 01:46:01;;;;;;;13.30;4.13;;;6.30;99.90;;;;;;5030796;28;20049;-71
2022/05/09 01:51:11;;;;;;;17.60;4.97;;;6.30;99.90;;;;;;5024755;28;20551;-71
2022/05/09 01:53:37;;;;;;;12.60;4.20;;;6.20;99.90;;;;;;5029437;28;20124;-71
2022/05/09 01:56:02;;;;;;;13.43;4.38;;;6.20;99.90;;;;;;5033258;28;20065;-71
2022/05/09 01:58:28;;;;;;;12.85;4.05;;;6.20;99.90;;;;;;5019075;28;21015;-71
2022/05/09 02:00:54;;;;;;;12.77;5.13;;;6.20;99.90;;;;;;5022507;28;20374;-71
2022/05/09 02:03:20;;;;;;;12.38;4.70;;;6.20;99.90;;;;;;5028733;28;20494;-71
2022/05/09 02:05:46;;;;;;;9.80;3.90;;;6.10;99.90;;;;;;5029447;28;20809;-71
2022/05/09 02:08:12;;;;;;;12.85;4.47;;;6.10;99.90;;;;;;5026758;28;20037;-71
2022/05/09 02:10:37;;;;;;;10.25;4.40;;;6.10;99.90;;;;;;5025356;28;20044;-71
2022/05/09 02:13:03;;;;;;;12.05;4.10;;;6.10;99.90;;;;;;5030390;28;20041;-70
2022/05/09 02:15:31;;;;;;;12.27;4.80;;;6.10;99.90;;;;;;5027757;28;20532;-71
2022/05/09 02:17:58;;;;;;;14.13;5.15;;;6.10;99.90;;;;;;5024616;28;20056;-71
2022/05/09 02:20:24;;;;;;;10.18;4.28;;;6.10;99.90;;;;;;5032013;28;20120;-71
2022/05/09 02:22:49;;;;;;;16.55;4.85;;;6.10;99.90;;;;;;5026596;28;20053;-71
2022/05/09 02:25:29;;;;;;;11.65;3.78;;;6.10;99.90;;;;;;5027719;28;20053;-71
2022/05/09 02:28:05;;;;;;;19.55;4.80;;;6.10;99.90;;;;;;5063773;28;20057;-71
2022/05/09 02:30:31;;;;;;;19.95;5.05;;;6.10;99.90;;;;;;5022961;28;20056;-71
2022/05/09 02:32:56;;;;;;;18.90;4.82;;;6.10;99.90;;;;;;5028606;28;20050;-71
2022/05/09 02:35:22;;;;;;;11.90;4.28;;;6.10;99.90;;;;;;5026873;28;20053;-71
2022/05/09 02:37:51;;;;;;;11.52;4.70;;;6.10;99.90;;;;;;5023662;28;20068;-71
2022/05/09 02:40:17;;;;;;;13.10;4.65;;;6.10;99.90;;;;;;5025485;28;20054;-71
2022/05/09 02:42:43;;;;;;;10.05;3.97;;;6.00;99.90;;;;;;5028427;28;20407;-70
2022/05/09 02:45:10;;;;;;;12.85;4.30;;;6.00;99.90;;;;;;5023936;28;20802;-70
2022/05/09 02:47:36;;;;;;;15.85;4.13;;;6.00;99.90;;;;;;5023960;28;20068;-70
2022/05/09 02:50:02;;;;;;;14.75;4.57;;;6.00;99.90;;;;;;5023941;28;20069;-71
2022/05/09 02:52:28;;;;;;;13.10;4.95;;;6.00;99.90;;;;;;5026935;28;20120;-71
2022/05/09 02:54:53;;;;;;;11.18;3.97;;;5.90;99.90;;;;;;5027822;28;20045;-71
2022/05/09 02:57:19;;;;;;;16.73;4.78;;;5.90;99.90;;;;;;5022449;28;20480;-71
2022/05/09 02:59:44;;;;;;;14.40;4.88;;;5.90;99.90;;;;;;5022107;28;20103;-71
2022/05/09 03:02:10;;;;;;;13.70;4.35;;;5.90;99.90;;;;;;5022382;28;20044;-70
2022/05/09 03:04:39;;;;;;;14.70;4.57;;;5.80;99.90;;;;;;5024357;28;20098;-70
2022/05/09 03:07:09;;;;;;;11.90;5.10;;;5.80;99.90;;;;;;5023749;28;20071;-71
2022/05/09 03:09:35;;;;;;;14.70;4.55;;;5.80;99.90;;;;;;5021342;28;20575;-71
2022/05/09 03:12:02;;;;;;;12.38;4.00;;;5.80;99.90;;;;;;5050847;28;20045;-71
2022/05/09 03:14:28;;;;;;;12.88;4.32;;;5.80;99.90;;;;;;5023190;28;20129;-71
2022/05/09 03:16:53;;;;;;;11.90;4.13;;;5.80;99.90;;;;;;5024061;28;20132;-71
2022/05/09 03:19:19;;;;;;;14.60;4.60;;;5.80;99.90;;;;;;5025022;28;20045;-71
2022/05/09 03:21:45;;;;;;;17.55;4.72;;;5.70;99.90;;;;;;5022550;28;20404;-71
2022/05/09 03:24:10;;;;;;;11.38;4.50;;;5.70;99.90;;;;;;5018393;28;20132;-71
2022/05/09 03:26:36;;;;;;;11.98;4.47;;;5.70;99.90;;;;;;5021963;28;20136;-70
2022/05/09 03:29:03;;;;;;;14.88;4.72;;;5.80;99.90;;;;;;5021526;28;20052;-71
2022/05/09 03:31:30;;;;;;;12.55;4.72;;;5.70;99.90;;;;;;5022617;28;20060;-71
2022/05/09 03:33:57;;;;;;;11.57;4.72;;;5.60;99.90;;;;;;5052861;28;20045;-71
2022/05/09 03:36:23;;;;;;;14.32;5.80;;;5.60;99.90;;;;;;5020630;28;20053;-70
2022/05/09 03:38:48;;;;;;;12.07;4.30;;;5.60;99.90;;;;;;5057476;28;20049;-71
2022/05/09 03:41:14;;;;;;;10.93;4.45;;;5.50;99.90;;;;;;5026527;28;20136;-71
2022/05/09 03:43:39;;;;;;;12.48;5.30;;;5.50;99.90;;;;;;5057192;28;20480;-71
2022/05/09 03:46:05;;;;;;;9.32;4.47;;;5.50;99.90;;;;;;5021582;28;20042;-70
2022/05/09 03:48:31;;;;;;;17.17;4.93;;;5.50;99.90;;;;;;5026631;28;20072;-70
2022/05/09 03:50:57;;;;;;;12.75;5.10;;;5.50;99.90;;;;;;5022408;28;20516;-70
2022/05/09 03:53:25;;;;;;;11.27;5.03;;;5.40;99.90;;;;;;5024885;28;20053;-71
2022/05/09 03:55:52;;;;;;;14.98;5.57;;;5.40;99.90;;;;;;5022575;28;20049;-71
2022/05/09 03:58:20;;;;;;;10.43;4.72;;;5.40;99.90;;;;;;5026849;28;20095;-71
2022/05/09 04:00:46;;;;;;;13.63;5.10;;;5.50;99.90;;;;;;5025310;28;20042;-70
2022/05/09 04:03:12;;;;;;;15.73;5.18;;;5.50;99.90;;;;;;5024654;28;20090;-70
2022/05/09 04:05:38;;;;;;;16.65;5.50;;;5.50;99.90;;;;;;5023755;28;20470;-71
2022/05/09 04:08:11;;;;;;;11.93;4.70;;;5.60;99.90;;;;;;5027843;28;20504;-71
2022/05/09 04:10:37;;;;;;;14.10;4.65;;;5.50;99.90;;;;;;5025869;28;20103;-71
2022/05/09 04:13:04;;;;;;;12.00;5.40;;;5.50;99.90;;;;;;5020050;28;20057;-70
2022/05/09 04:18:19;;;;;;;16.38;5.43;;;5.50;99.90;;;;;;5017607;28;20054;-70
2022/05/09 04:20:46;;;;;;;14.85;5.57;;;5.60;99.90;;;;;;5020782;28;20049;-71
2022/05/09 04:23:12;;;;;;;13.65;5.38;;;5.60;99.90;;;;;;5020148;28;20442;-70
2022/05/09 04:25:37;;;;;;;15.07;5.60;;;5.70;99.90;;;;;;5051225;28;20050;-71
2022/05/09 04:28:06;;;;;;;13.75;5.57;;;5.70;99.90;;;;;;5022170;28;20053;-71
2022/05/09 04:30:34;;;;;;;16.45;5.82;;;5.70;99.90;;;;;;5018806;28;20045;-71
2022/05/09 04:32:59;;;;;;;11.65;5.28;;;5.70;99.90;;;;;;5021429;28;20060;-70
2022/05/09 04:35:25;;;;;;;13.88;5.57;;;5.70;99.90;;;;;;5021794;28;20053;-71
2022/05/09 04:37:53;;;;;;;13.45;5.72;;;5.70;99.90;;;;;;5024449;28;20375;-70
2022/05/09 04:40:22;;;;;;;13.98;5.80;;;5.70;99.90;;;;;;5023122;28;20084;-70
2022/05/09 04:42:48;;;;;;;14.68;5.32;;;5.80;99.90;;;;;;5025993;28;20531;-71
2022/05/09 04:45:15;;;;;;;14.40;5.65;;;5.80;99.90;;;;;;5024981;28;20156;-70
2022/05/09 04:47:41;;;;;;;13.70;5.70;;;5.80;99.90;;;;;;5021564;28;20053;-70
2022/05/09 04:50:10;;;;;;;15.43;6.30;;;5.80;99.90;;;;;;5022611;28;20507;-70
2022/05/09 04:52:36;;;;;;;21.95;7.28;;;5.90;99.90;;;;;;5023938;28;20084;-70
2022/05/09 04:55:03;;;;;;;17.08;5.68;;;5.90;99.90;;;;;;5015198;28;20434;-70
2022/05/09 04:57:28;;;;;;;16.25;6.25;;;6.00;99.90;;;;;;5022878;28;20052;-70
2022/05/09 04:59:54;;;;;;;13.27;5.47;;;6.00;99.90;;;;;;5025289;28;20137;-70
2022/05/09 05:02:19;;;;;;;18.10;5.93;;;6.10;99.90;;;;;;5024548;28;20095;-70
2022/05/09 05:04:45;;;;;;;17.77;6.82;;;6.10;99.90;;;;;;5022445;28;20041;-70
2022/05/09 05:07:10;;;;;;;21.38;7.47;;;6.10;99.90;;;;;;5023402;28;20875;-71
2022/05/09 05:09:36;;;;;;;16.20;5.13;;;6.20;99.90;;;;;;5021869;28;20151;-70
2022/05/09 05:12:03;;;;;;;18.35;6.78;;;6.20;99.90;;;;;;5020787;28;20061;-70
2022/05/09 05:14:28;;;;;;;19.90;6.53;;;6.20;99.90;;;;;;5024076;28;20052;-71
2022/05/09 05:17:00;;;;;;;20.02;6.00;;;6.30;99.90;;;;;;5024259;28;20057;-71
2022/05/09 05:19:33;;;;;;;19.92;7.05;;;6.30;99.90;;;;;;5022750;28;20040;-73
2022/05/09 05:22:00;;;;;;;15.93;6.57;;;6.30;99.90;;;;;;5022691;28;20061;-72
2022/05/09 05:24:27;;;;;;;18.83;6.55;;;6.40;99.90;;;;;;5021544;28;20041;-72
2022/05/09 05:26:53;;;;;;;18.00;6.50;;;6.40;99.90;;;;;;5001949;28;20157;-72
2022/05/09 05:29:20;;;;;;;18.33;6.35;;;6.50;99.90;;;;;;4984424;28;20129;-71
2022/05/09 05:31:46;;;;;;;14.07;5.60;;;6.50;99.90;;;;;;4981796;28;20100;-72
2022/05/09 05:34:11;;;;;;;22.08;6.15;;;6.60;99.90;;;;;;5015722;28;20054;-72
2022/05/09 05:36:37;;;;;;;18.50;6.43;;;6.60;99.90;;;;;;4985122;28;20061;-72
2022/05/09 05:39:03;;;;;;;19.70;7.13;;;6.60;99.90;;;;;;4988191;28;20050;-71
2022/05/09 05:41:31;;;;;;;18.00;6.50;;;6.70;99.90;;;;;;5005593;28;20057;-72
2022/05/09 05:43:57;;;;;;;16.45;6.32;;;6.80;99.90;;;;;;4991500;28;20057;-73
2022/05/09 05:46:23;;;;;;;18.67;7.05;;;6.80;99.90;;;;;;4984630;28;20045;-71
2022/05/09 05:48:48;;;;;;;16.60;7.47;;;6.90;99.90;;;;;;5008252;28;20033;-71
2022/05/09 05:51:14;;;;;;;22.20;7.55;;;6.90;99.90;;;;;;4990744;28;20065;-71
2022/05/09 05:53:40;;;;;;;22.45;7.72;;;7.00;99.90;;;;;;5009438;28;20417;-71
2022/05/09 05:56:06;;;;;;;21.30;7.82;;;7.10;99.90;;;;;;5007726;28;20598;-71
2022/05/09 05:58:32;;;;;;;18.40;7.10;;;7.20;99.90;;;;;;5009137;28;20038;-71
2022/05/09 06:00:57;;;;;;;28.30;8.48;;;7.20;99.90;;;;;;4989430;28;20049;-72
2022/05/09 06:03:23;;;;;;;26.88;8.35;;;7.30;99.90;;;;;;5009149;28;20531;-71
2022/05/09 06:05:49;;;;;;;15.13;7.35;;;7.40;99.90;;;;;;4989289;28;20053;-71
2022/05/09 06:08:16;;;;;;;18.25;7.85;;;7.40;99.90;;;;;;5010714;28;20045;-71
2022/05/09 06:10:44;;;;;;;19.70;7.95;;;7.50;99.90;;;;;;4987401;28;20050;-70
2022/05/09 06:13:10;;;;;;;18.80;7.50;;;7.60;99.90;;;;;;4991191;28;20034;-72
2022/05/09 06:15:36;;;;;;;26.27;8.95;;;7.60;99.90;;;;;;4990555;28;20524;-73
2022/05/09 06:18:12;;;;;;;23.67;7.57;;;7.70;99.90;;;;;;4994266;28;20108;-73
2022/05/09 06:20:39;;;;;;;22.58;7.00;;;7.70;99.90;;;;;;5003290;28;20080;-73
2022/05/09 06:23:05;;;;;;;21.00;7.32;;;7.80;99.90;;;;;;5003244;28;20034;-76
2022/05/09 06:25:34;;;;;;;24.00;7.97;;;7.90;99.90;;;;;;5007344;28;20061;-74
2022/05/09 06:28:01;;;;;;;21.17;7.88;;;7.90;99.90;;;;;;5015693;28;20441;-74
2022/05/09 06:30:27;;;;;;;14.82;7.85;;;8.00;99.90;;;;;;5022348;28;20076;-74
2022/05/09 06:32:54;;;;;;;23.23;7.80;;;8.10;99.90;;;;;;5032398;28;20053;-74
2022/05/09 06:35:23;;;;;;;26.15;8.27;;;8.10;99.90;;;;;;5024846;28;20128;-74
2022/05/09 06:37:50;;;;;;;20.45;8.07;;;8.20;99.90;;;;;;5020295;28;20073;-74
2022/05/09 06:40:17;;;;;;;18.88;7.90;;;8.30;99.90;;;;;;5029600;28;20091;-74
2022/05/09 06:42:43;;;;;;;20.02;7.97;;;8.40;99.90;;;;;;5018419;28;20044;-74
2022/05/09 06:45:09;;;;;;;16.10;6.75;;;8.50;99.90;;;;;;5026314;28;20499;-74
2022/05/09 06:47:43;;;;;;;24.00;7.53;;;8.60;99.90;;;;;;5018175;28;20042;-74
2022/05/09 06:50:09;;;;;;;21.08;7.93;;;8.70;99.90;;;;;;5024176;28;20037;-74
2022/05/09 06:52:36;;;;;;;18.90;8.10;;;8.80;99.90;;;;;;5023101;28;20528;-74
2022/05/09 06:55:03;;;;;;;19.20;7.65;;;8.90;99.90;;;;;;5022190;28;20378;-74
2022/05/09 06:57:28;;;;;;;22.25;6.68;;;9.00;99.90;;;;;;5025827;28;20088;-74
2022/05/09 06:59:54;;;;;;;17.92;6.80;;;9.10;99.90;;;;;;5020267;28;20092;-74
2022/05/09 07:02:28;;;;;;;15.23;6.75;;;9.10;99.90;;;;;;5015602;28;20048;-74
2022/05/09 07:04:54;;;;;;;17.10;6.10;;;9.20;99.90;;;;;;5020827;28;20049;-73
2022/05/09 07:07:19;;;;;;;22.25;6.30;;;9.30;99.90;;;;;;5017527;28;20886;-74
2022/05/09 07:09:45;;;;;;;16.08;5.70;;;9.40;99.90;;;;;;5019496;28;20038;-74
2022/05/09 07:12:10;;;;;;;15.75;5.35;;;9.50;99.90;;;;;;5019626;28;20045;-74
2022/05/09 07:14:36;;;;;;;13.80;5.25;;;9.50;99.90;;;;;;5027392;28;20037;-74
2022/05/09 07:17:02;;;;;;;19.13;5.55;;;9.70;99.90;;;;;;5021856;28;20053;-74
2022/05/09 07:19:28;;;;;;;17.10;6.18;;;9.90;99.90;;;;;;5021409;28;20041;-74
2022/05/09 07:21:53;;;;;;;13.85;5.38;;;10.10;99.90;;;;;;5022347;28;20531;-74
2022/05/09 07:24:19;;;;;;;12.07;5.43;;;10.50;99.90;;;;;;5022115;28;20049;-74
2022/05/09 07:26:44;;;;;;;20.58;5.70;;;10.80;99.90;;;;;;5024860;28;20046;-73
2022/05/09 07:29:10;;;;;;;13.98;4.75;;;11.20;99.90;;;;;;5029556;28;20041;-73
2022/05/09 07:31:38;;;;;;;16.98;5.30;;;11.50;99.90;;;;;;5033691;28;20052;-73
2022/05/09 07:34:04;;;;;;;13.75;4.80;;;11.80;99.90;;;;;;5019092;28;20128;-74
2022/05/09 07:36:31;;;;;;;14.90;4.95;;;12.00;99.90;;;;;;5024232;28;20115;-73
2022/05/09 07:38:56;;;;;;;15.07;4.70;;;12.20;99.90;;;;;;5022661;28;20060;-73
2022/05/09 07:41:22;;;;;;;13.35;5.35;;;12.40;99.90;;;;;;5021729;28;20396;-73
2022/05/09 07:43:48;;;;;;;13.93;5.25;;;12.50;99.90;;;;;;5019779;28;20162;-73
2022/05/09 07:46:13;;;;;;;13.18;4.97;;;12.60;99.90;;;;;;5027222;28;20053;-73
2022/05/09 07:48:40;;;;;;;12.93;5.43;;;12.70;99.90;;;;;;5025135;28;20084;-73
2022/05/09 07:51:05;;;;;;;11.60;5.32;;;12.80;99.90;;;;;;5027256;28;20046;-74
2022/05/09 07:53:33;;;;;;;18.95;6.03;;;12.90;99.90;;;;;;5019334;28;20392;-74
2022/05/09 07:56:04;;;;;;;15.20;5.13;;;13.00;99.90;;;;;;5028098;28;20500;-74
2022/05/09 07:58:31;;;;;;;14.95;4.95;;;13.20;99.90;;;;;;5024997;28;20057;-74
2022/05/09 08:01:02;;;;;;;12.45;4.82;;;13.30;99.90;;;;;;5020710;28;20054;-74
2022/05/09 08:03:29;;;;;;;14.88;4.60;;;13.40;99.90;;;;;;5029092;28;20694;-74
2022/05/09 08:06:00;;;;;;;15.68;5.13;;;13.60;99.90;;;;;;5026385;28;20053;-73
2022/05/09 08:08:28;;;;;;;12.90;4.47;;;13.60;99.90;;;;;;5021731;28;20038;-72
2022/05/09 08:10:58;;;;;;;16.40;5.03;;;13.70;99.90;;;;;;5024902;28;20053;-71
2022/05/09 08:13:25;;;;;;;16.20;4.72;;;13.80;99.90;;;;;;5026858;28;20123;-72
2022/05/09 08:15:52;;;;;;;13.10;4.05;;;13.90;99.90;;;;;;5024670;28;20129;-72
2022/05/09 08:18:19;;;;;;;15.02;4.35;;;14.10;99.90;;;;;;5023491;28;20455;-71
2022/05/09 08:20:45;;;;;;;10.57;4.03;;;14.20;99.90;;;;;;5027660;28;20046;-71
2022/05/09 08:23:16;;;;;;;13.60;4.20;;;14.30;99.90;;;;;;5024218;28;20042;-73
2022/05/09 08:25:44;;;;;;;12.52;4.20;;;14.40;99.90;;;;;;5025111;28;20068;-72
2022/05/09 08:28:09;;;;;;;15.75;4.65;;;14.60;99.90;;;;;;5017689;28;20392;-73
2022/05/09 08:30:36;;;;;;;13.55;4.15;;;14.80;99.90;;;;;;5027126;28;20045;-73
2022/05/09 08:33:05;;;;;;;15.18;4.65;;;14.90;99.90;;;;;;5031671;28;20048;-72
2022/05/09 08:35:31;;;;;;;15.27;4.32;;;15.10;99.90;;;;;;5021669;28;20053;-73
2022/05/09 08:37:57;;;;;;;15.68;4.13;;;15.20;99.90;;;;;;5022524;28;20045;-73
2022/05/09 08:40:50;;;;;;;12.98;4.25;;;15.40;99.90;;;;;;5027080;28;20045;-73
2022/05/09 08:43:29;;;;;;;15.43;5.65;;;15.50;99.90;;;;;;5017283;28;20623;-73
2022/05/09 08:46:39;;;;;;;14.75;4.82;;;15.70;99.90;;;;;;5019741;28;20095;-75
2022/05/09 08:49:36;;;;;;;22.90;5.03;;;15.80;99.90;;;;;;5056140;28;20124;-72
2022/05/09 08:52:28;;;;;;;14.35;4.75;;;16.00;99.90;;;;;;5022839;28;20419;-71
2022/05/09 08:54:54;;;;;;;14.80;5.38;;;16.10;99.90;;;;;;5024021;28;20060;-72
2022/05/09 08:57:39;;;;;;;13.50;4.72;;;16.10;99.90;;;;;;5030268;28;20048;-71
2022/05/09 09:00:12;;;;;;;12.80;3.92;;;16.30;99.90;;;;;;5020071;28;20041;-72
2022/05/09 09:03:12;;;;;;;11.88;4.40;;;16.40;97.50;;;;;;5030496;28;20044;-72
2022/05/09 09:05:42;;;;;;;13.10;4.28;;;16.50;97.90;;;;;;5021647;28;20054;-73
2022/05/09 09:08:41;;;;;;;12.18;4.78;;;16.60;99.40;;;;;;5027387;28;20146;-73
2022/05/09 09:11:40;;;;;;;11.70;4.15;;;16.70;97.30;;;;;;5024085;28;20100;-74
2022/05/09 09:14:36;;;;;;;12.52;3.97;;;16.80;95.90;;;;;;5009496;28;20053;-73
2022/05/09 09:17:28;;;;;;;9.55;3.67;;;16.90;97.40;;;;;;5021420;28;20556;-73
2022/05/09 09:19:53;;;;;;;19.27;4.80;;;17.10;96.00;;;;;;5022460;28;20075;-73
2022/05/09 09:22:34;;;;;;;18.08;4.57;;;17.20;96.10;;;;;;5019218;28;20045;-73
2022/05/09 09:25:09;;;;;;;12.10;3.72;;;17.30;95.60;;;;;;5025451;28;20411;-73
2022/05/09 09:27:49;;;;;;;14.20;4.10;;;17.60;95.10;;;;;;5061782;28;20054;-74
2022/05/09 09:30:21;;;;;;;12.15;3.13;;;17.50;95.10;;;;;;5030237;28;20439;-74
2022/05/09 09:33:03;;;;;;;13.00;3.60;;;17.50;94.60;;;;;;5030522;28;20408;-74
2022/05/09 09:35:40;;;;;;;10.35;3.47;;;17.70;93.30;;;;;;5026537;28;20488;-76
2022/05/09 09:38:40;;;;;;;9.10;3.50;;;17.80;91.80;;;;;;5025712;28;20042;-76
2022/05/09 09:41:29;;;;;;;11.13;3.95;;;17.90;91.20;;;;;;5016271;28;20049;-76
2022/05/09 09:44:07;;;;;;;11.23;3.20;;;18.00;91.50;;;;;;5028912;28;20048;-76
2022/05/09 09:46:32;;;;;;;9.68;2.95;;;18.10;90.20;;;;;;5027105;28;20448;-76
2022/05/09 09:49:09;;;;;;;10.25;2.67;;;18.20;90.10;;;;;;5019679;28;20131;-75
2022/05/09 09:51:49;;;;;;;12.10;2.60;;;18.30;85.80;;;;;;5021898;28;20661;-75
2022/05/09 09:54:21;;;;;;;11.60;3.50;;;18.40;86.50;;;;;;5031247;28;20048;-75
2022/05/09 09:56:47;;;;;;;10.32;3.05;;;18.50;88.60;;;;;;5027520;28;20037;-80
2022/05/09 09:59:31;;;;;;;9.40;2.88;;;18.60;86.00;;;;;;5022371;28;20049;-81
2022/05/09 10:02:25;;;;;;;12.07;3.03;;;18.70;81.80;;;;;;5030685;28;20141;-80
2022/05/09 10:04:55;;;;;;;12.73;2.75;;;18.80;84.60;;;;;;5027285;28;20539;-80
2022/05/09 10:07:33;;;;;;;8.32;2.65;;;18.90;85.20;;;;;;5025643;28;20125;-80
2022/05/09 10:10:11;;;;;;;10.40;2.78;;;19.00;83.40;;;;;;5027312;28;20057;-80
2022/05/09 10:12:40;;;;;;;9.45;2.70;;;19.20;83.00;;;;;;5030240;28;20042;-80
2022/05/09 10:15:30;;;;;;;7.45;2.20;;;19.40;82.10;;;;;;5016748;28;20120;-80
2022/05/09 10:17:57;;;;;;;9.27;2.90;;;19.50;80.10;;;;;;5026437;28;20396;-80
2022/05/09 10:20:28;;;;;;;8.63;2.30;;;19.70;82.10;;;;;;5021540;28;20400;-80
2022/05/09 10:26:24;;;;;;;10.15;2.42;;;19.90;80.20;;;;;;5019136;28;20053;-80
2022/05/09 10:28:54;;;;;;;11.00;2.50;;;20.10;80.40;;;;;;5019429;28;20045;-80
2022/05/09 10:31:36;;;;;;;11.40;2.45;;;20.30;79.00;;;;;;5049647;28;20089;-80
2022/05/09 10:34:17;;;;;;;9.23;2.22;;;20.30;76.20;;;;;;5026942;28;20129;-80
2022/05/09 10:37:03;;;;;;;9.25;2.58;;;20.40;78.20;;;;;;5030391;28;20056;-80
2022/05/09 10:39:29;;;;;;;11.50;2.50;;;20.40;79.70;;;;;;5016386;28;20050;-80
2022/05/09 10:42:00;;;;;;;6.82;1.77;;;20.50;78.40;;;;;;5009671;28;20114;-80
2022/05/09 10:44:51;;;;;;;9.70;2.60;;;20.50;77.90;;;;;;5011408;28;20439;-80
2022/05/09 10:47:20;;;;;;;8.60;2.30;;;20.60;76.90;;;;;;5003657;28;20061;-80
2022/05/09 10:50:09;;;;;;;10.18;2.38;;;20.70;72.20;;;;;;5011947;28;20128;-79
2022/05/09 10:52:59;;;;;;;8.82;2.65;;;20.70;75.20;;;;;;5015444;28;20048;-80
2022/05/09 10:55:33;;;;;;;7.80;2.00;;;20.90;70.60;;;;;;5022227;28;20045;-80
2022/05/09 10:58:10;;;;;;;9.40;2.20;;;21.00;77.20;;;;;;5042495;28;20168;-80
2022/05/09 11:00:41;;;;;;;6.07;2.08;;;21.10;72.70;;;;;;5012436;28;20044;-80
2022/05/09 11:03:27;;;;;;;7.32;2.05;;;21.10;73.40;;;;;;5024926;28;20045;-80
2022/05/09 11:06:17;;;;;;;11.20;2.10;;;21.20;71.00;;;;;;5013100;28;20037;-80
2022/05/09 11:09:20;;;;;;;10.95;1.95;;;21.20;69.20;;;;;;5021813;28;20130;-80
2022/05/09 11:12:10;;;;;;;9.93;2.30;;;21.20;72.30;;;;;;5027803;28;20052;-81
2022/05/09 11:15:02;;;;;;;8.82;2.10;;;21.30;72.50;;;;;;5018833;28;20054;-79
2022/05/09 11:18:06;;;;;;;7.10;1.83;;;21.40;71.80;;;;;;5048638;28;20042;-82
2022/05/09 11:20:51;;;;;;;6.50;2.05;;;21.50;69.60;;;;;;5025487;28;20041;-83
2022/05/09 11:23:32;;;;;;;8.77;1.88;;;21.60;67.60;;;;;;5021072;28;20076;-82
2022/05/09 11:26:13;;;;;;;11.40;2.35;;;21.70;69.20;;;;;;5028759;28;20079;-83
2022/05/09 11:29:14;;;;;;;12.20;2.13;;;21.70;68.70;;;;;;5013402;28;20077;-83
2022/05/09 11:32:01;;;;;;;7.97;2.08;;;21.80;70.70;;;;;;5024576;28;20041;-82
2022/05/09 11:34:51;;;;;;;8.90;2.13;;;21.90;70.30;;;;;;5031426;28;20041;-82
2022/05/09 11:37:51;;;;;;;8.43;1.77;;;22.00;69.70;;;;;;5032246;28;20073;-82
2022/05/09 11:40:27;;;;;;;9.07;2.10;;;22.10;69.50;;;;;;5028220;28;20171;-82
2022/05/09 11:43:27;;;;;;;6.65;2.10;;;22.20;70.20;;;;;;5020521;28;20044;-80
2022/05/09 11:46:27;;;;;;;7.65;2.30;;;22.30;70.40;;;;;;5057266;28;20103;-80
2022/05/09 11:49:04;;;;;;;6.93;2.28;;;22.40;67.60;;;;;;5027757;28;20544;-79
2022/05/09 11:51:51;;;;;;;10.07;1.92;;;22.40;67.20;;;;;;5022403;28;20536;-81
2022/05/09 11:54:36;;;;;;;10.05;2.15;;;22.50;67.40;;;;;;5028256;28;20170;-84
2022/05/09 11:57:07;;;;;;;11.40;2.28;;;22.50;67.10;;;;;;5019344;28;20041;-82
2022/05/09 11:59:34;;;;;;;8.30;1.83;;;22.70;69.20;;;;;;5019338;28;20041;-82
2022/05/09 12:02:32;;;;;;;7.47;1.98;;;22.80;67.50;;;;;;5028597;28;20088;-81
2022/05/09 12:04:58;;;;;;;10.10;1.85;;;22.80;67.00;;;;;;5027075;28;20057;-81
2022/05/09 12:07:23;;;;;;;10.38;2.15;;;22.90;68.10;;;;;;5026799;28;20049;-81
2022/05/09 12:10:00;;;;;;;7.50;2.00;;;23.00;68.90;;;;;;5016080;28;20038;-82
2022/05/09 12:12:38;;;;;;;9.57;2.08;;;23.00;68.30;;;;;;5059955;28;20095;-81
2022/05/09 12:15:12;;;;;;;8.10;2.03;;;23.00;66.80;;;;;;5019039;28;20133;-83
2022/05/09 12:17:38;;;;;;;;;;;23.00;65.40;;;;;;5059503;28;20060;-83
2022/05/09 12:20:07;;;;;;;5.15;1.60;;;23.00;65.20;;;;;;5027543;28;19932;-78
2022/05/09 12:22:44;;;;;;;8.80;2.08;;;23.10;67.00;;;;;;5018385;28;20492;-79
2022/05/09 12:25:29;;;;;;;8.02;2.28;;;23.10;67.00;;;;;;5025226;28;20049;-79
2022/05/09 12:28:03;;;;;;;9.43;1.83;;;23.20;65.80;;;;;;5018996;28;20476;-79
2022/05/09 12:30:40;;;;;;;7.55;1.98;;;23.30;65.50;;;;;;5023993;28;20780;-81
2022/05/09 12:33:31;;;;;;;5.10;1.70;;;23.40;66.00;;;;;;5030838;28;20045;-81
2022/05/09 12:36:06;;;;;;;7.35;1.83;;;23.60;69.20;;;;;;5022899;28;20053;-83
2022/05/09 12:38:36;;;;;;;6.45;1.70;;;23.70;65.70;;;;;;5013831;28;20508;-81
2022/05/09 12:41:13;;;;;;;8.80;1.70;;;23.70;63.80;;;;;;5045549;28;20463;-82
2022/05/09 12:43:44;;;;;;;13.18;2.17;;;23.70;64.90;;;;;;5031630;28;20096;-82
2022/05/09 12:46:20;;;;;;;5.68;1.63;;;23.80;65.10;;;;;;5045198;28;20527;-81
2022/05/09 12:48:45;;;;;;;8.30;1.85;;;23.90;66.30;;;;;;5030801;28;20077;-81
2022/05/09 12:51:13;;;;;;;11.05;2.13;;;23.90;65.70;;;;;;5021808;28;20076;-83
2022/05/09 12:53:39;;;;;;;8.82;2.00;;;23.90;64.00;;;;;;5022422;28;20239;-82
2022/05/09 12:56:16;;;;;;;9.10;1.88;;;23.90;65.90;;;;;;5022368;28;20132;-84
2022/05/09 12:58:45;;;;;;;8.27;1.60;;;23.90;65.30;;;;;;5046814;28;20053;-83
2022/05/09 13:01:23;;;;;;;10.10;2.00;;;23.90;64.70;;;;;;5027911;28;20466;-81
2022/05/09 13:03:52;;;;;;;6.82;1.58;;;23.90;63.40;;;;;;5031461;28;20053;-82
2022/05/09 13:06:34;;;;;;;6.80;1.98;;;23.90;63.60;;;;;;5029517;28;20042;-80
2022/05/09 13:09:19;;;;;;;6.90;1.98;;;23.90;68.00;;;;;;5019132;28;20042;-82
2022/05/09 13:11:51;;;;;;;8.82;2.10;;;23.90;66.00;;;;;;5019844;28;20046;-81
2022/05/09 13:14:23;;;;;;;7.75;1.92;;;24.00;67.70;;;;;;5028616;28;20163;-81
2022/05/09 13:17:03;;;;;;;7.90;2.00;;;24.10;66.10;;;;;;5032163;28;20049;-82
2022/05/09 13:19:31;;;;;;;8.23;2.03;;;24.20;66.90;;;;;;5031071;28;20080;-82
2022/05/09 13:21:57;;;;;;;6.93;2.13;;;24.20;66.30;;;;;;5026565;28;20046;-80
2022/05/09 13:24:27;;;;;;;8.15;2.03;;;24.30;67.30;;;;;;5023314;28;20049;-84